createdAt,value
2023-06-12T00:01:21.874Z,19.70
2023-06-12T00:03:51.546Z,19.70
2023-06-12T00:06:23.512Z,19.80
2023-06-12T00:08:53.175Z,20.10
2023-06-12T00:11:22.723Z,20.10
2023-06-12T00:13:52.301Z,20.00
2023-06-12T00:16:23.003Z,20.20
2023-06-12T00:18:53.546Z,20.20
2023-06-12T00:21:24.906Z,20.20
2023-06-12T00:23:54.643Z,20.30
2023-06-12T00:26:24.306Z,20.20
2023-06-12T00:28:55.019Z,20.20
2023-06-12T00:31:24.576Z,20.20
2023-06-12T00:33:55.830Z,20.10
2023-06-12T00:36:25.361Z,20.00
2023-06-12T00:38:56.721Z,19.80
2023-06-12T00:41:26.703Z,19.80
2023-06-12T00:43:58.793Z,20.00
2023-06-12T00:46:28.865Z,19.90
2023-06-12T00:48:58.754Z,20.00
2023-06-12T00:51:29.441Z,20.20
2023-06-12T00:53:59.212Z,20.10
2023-06-12T00:56:29.460Z,19.70
2023-06-12T00:58:59.372Z,19.60
2023-06-12T01:01:31.978Z,19.70
2023-06-12T01:04:02.257Z,19.60
2023-06-12T01:06:55.112Z,19.90
2023-06-12T01:09:31.004Z,19.90
2023-06-12T01:12:03.236Z,20.00
2023-06-12T01:14:33.017Z,19.90
2023-06-12T01:17:03.970Z,19.80
2023-06-12T01:19:34.672Z,20.00
2023-06-12T01:22:08.967Z,19.80
2023-06-12T01:25:02.007Z,20.00
2023-06-12T01:27:44.071Z,19.80
2023-06-12T01:30:26.198Z,19.20
2023-06-12T01:33:00.516Z,19.60
2023-06-12T01:35:31.610Z,19.80
2023-06-12T01:38:14.143Z,19.90
2023-06-12T01:40:44.386Z,19.90
2023-06-12T01:43:15.519Z,19.70
2023-06-12T01:45:44.332Z,19.80
2023-06-12T01:48:15.456Z,19.70
2023-06-12T01:50:46.883Z,19.70
2023-06-12T01:53:17.147Z,19.60
2023-06-12T01:55:46.759Z,19.50
2023-06-12T01:58:18.886Z,19.40
2023-06-12T02:00:58.791Z,19.20
2023-06-12T02:03:29.913Z,19.10
2023-06-12T02:05:59.435Z,19.40
2023-06-12T02:08:29.149Z,19.40
2023-06-12T02:10:58.688Z,19.50
2023-06-12T02:13:28.337Z,19.50
2023-06-12T02:15:58.593Z,19.30
2023-06-12T02:18:29.945Z,19.60
2023-06-12T02:20:59.653Z,19.40
2023-06-12T02:25:44.949Z,19.20
2023-06-12T02:28:15.397Z,19.30
2023-06-12T02:30:45.751Z,19.10
2023-06-12T02:33:16.172Z,19.10
2023-06-12T02:35:45.811Z,18.80
2023-06-12T02:38:15.498Z,18.90
2023-06-12T02:40:45.079Z,18.90
2023-06-12T02:43:14.856Z,18.80
2023-06-12T02:45:44.618Z,19.10
2023-06-12T02:48:14.619Z,19.10
2023-06-12T02:50:44.218Z,19.00
2023-06-12T02:53:14.646Z,18.90
2023-06-12T02:55:45.957Z,18.90
2023-06-12T02:58:15.625Z,18.60
2023-06-12T03:00:45.697Z,18.70
2023-06-12T03:03:15.927Z,18.70
2023-06-12T03:05:46.170Z,18.50
2023-06-12T03:08:17.545Z,18.60
2023-06-12T03:10:47.250Z,18.80
2023-06-12T03:13:16.780Z,18.80
2023-06-12T03:15:47.489Z,18.80
2023-06-12T03:18:17.652Z,18.60
2023-06-12T03:20:47.185Z,18.80
2023-06-12T03:23:17.409Z,18.70
2023-06-12T03:25:49.011Z,18.90
2023-06-12T03:28:18.758Z,19.00
2023-06-12T03:30:48.355Z,19.00
2023-06-12T03:33:18.774Z,19.00
2023-06-12T03:35:48.380Z,18.90
2023-06-12T03:38:20.858Z,19.10
2023-06-12T03:40:51.368Z,19.10
2023-06-12T03:43:21.026Z,19.10
2023-06-12T03:45:51.610Z,18.90
2023-06-12T03:48:22.286Z,18.50
2023-06-12T03:50:51.902Z,18.50
2023-06-12T03:53:22.123Z,18.20
2023-06-12T03:55:51.992Z,18.30
2023-06-12T03:58:22.369Z,18.20
2023-06-12T04:00:52.215Z,18.00
2023-06-12T04:03:22.890Z,18.10
2023-06-12T04:05:53.493Z,18.00
2023-06-12T04:08:23.966Z,18.20
2023-06-12T04:10:54.330Z,18.10
2023-06-12T04:13:24.016Z,18.30
2023-06-12T04:15:55.616Z,18.00
2023-06-12T04:18:27.228Z,18.20
2023-06-12T04:20:57.314Z,18.20
2023-06-12T04:23:28.640Z,18.30
2023-06-12T04:26:04.373Z,18.50
2023-06-12T04:28:38.330Z,18.40
2023-06-12T04:31:08.179Z,18.50
2023-06-12T04:33:39.171Z,18.70
2023-06-12T04:36:10.491Z,18.70
2023-06-12T04:38:40.232Z,18.70
2023-06-12T04:41:11.485Z,18.80
2023-06-12T04:43:45.111Z,18.70
2023-06-12T04:46:14.712Z,18.80
2023-06-12T04:48:44.417Z,18.90
2023-06-12T04:51:18.120Z,18.80
2023-06-12T04:53:49.073Z,19.00
2023-06-12T04:56:20.381Z,18.70
2023-06-12T04:58:51.052Z,18.80
2023-06-12T05:01:24.574Z,19.00
2023-06-12T05:03:54.220Z,18.80
2023-06-12T05:06:25.982Z,19.00
2023-06-12T05:08:56.493Z,19.10
2023-06-12T05:11:26.502Z,19.10
2023-06-12T05:13:56.992Z,19.10
2023-06-12T05:16:27.157Z,19.00
2023-06-12T05:18:57.938Z,18.80
2023-06-12T05:21:28.409Z,19.10
2023-06-12T05:23:58.295Z,19.00
2023-06-12T05:26:28.283Z,18.90
2023-06-12T05:28:57.898Z,19.10
2023-06-12T05:31:30.412Z,19.10
2023-06-12T05:34:00.441Z,19.10
2023-06-12T05:36:30.027Z,19.10
2023-06-12T05:39:01.292Z,19.20
2023-06-12T05:41:31.100Z,19.10
2023-06-12T05:44:01.395Z,18.90
2023-06-12T05:46:31.067Z,19.10
2023-06-12T05:49:02.554Z,19.10
2023-06-12T05:51:34.179Z,19.10
2023-06-12T05:54:04.030Z,19.20
2023-06-12T05:56:33.738Z,19.20
2023-06-12T05:59:03.440Z,19.10
2023-06-12T06:01:34.690Z,19.00
2023-06-12T06:04:04.652Z,19.10
2023-06-12T06:06:34.963Z,19.20
2023-06-12T06:09:08.795Z,19.00
2023-06-12T06:11:38.845Z,19.20
2023-06-12T06:14:08.449Z,19.10
2023-06-12T06:16:53.398Z,18.90
2023-06-12T06:19:10.757Z,19.10
2023-06-12T06:21:40.748Z,19.20
2023-06-12T06:24:10.680Z,19.10
2023-06-12T06:26:42.206Z,18.90
2023-06-12T06:29:15.224Z,19.00
2023-06-12T06:31:44.133Z,18.80
2023-06-12T06:34:15.388Z,18.80
2023-06-12T06:36:44.981Z,18.80
2023-06-12T06:39:14.886Z,19.00
2023-06-12T06:41:44.642Z,19.00
2023-06-12T06:44:14.259Z,19.00
2023-06-12T06:46:44.947Z,18.90
2023-06-12T06:49:14.790Z,19.00
2023-06-12T06:51:44.502Z,19.10
2023-06-12T06:54:14.258Z,19.10
2023-06-12T06:56:43.915Z,19.20
2023-06-12T06:59:13.439Z,19.00
2023-06-12T07:01:43.266Z,19.20
2023-06-12T07:04:14.923Z,19.20
2023-06-12T07:06:45.051Z,19.20
2023-06-12T07:09:15.587Z,19.20
2023-06-12T07:11:45.615Z,19.30
2023-06-12T07:14:15.212Z,19.40
2023-06-12T07:16:45.912Z,19.20
2023-06-12T07:19:16.139Z,19.30
2023-06-12T07:21:46.519Z,19.50
2023-06-12T07:24:19.373Z,19.40
2023-06-12T07:26:49.665Z,19.40
2023-06-12T07:29:19.552Z,19.50
2023-06-12T07:31:49.362Z,19.60
2023-06-12T07:34:19.058Z,19.40
2023-06-12T07:36:48.773Z,19.40
2023-06-12T07:39:18.415Z,19.50
2023-06-12T07:41:48.199Z,19.40
2023-06-12T07:44:18.643Z,19.30
2023-06-12T07:46:48.398Z,19.60
2023-06-12T07:49:19.548Z,19.50
2023-06-12T07:51:51.570Z,19.30
2023-06-12T07:54:20.537Z,19.60
2023-06-12T07:56:52.872Z,19.40
2023-06-12T07:59:25.133Z,19.70
2023-06-12T08:01:57.129Z,19.40
2023-06-12T08:04:27.700Z,19.40
2023-06-12T08:06:57.520Z,19.50
2023-06-12T08:09:29.125Z,19.60
2023-06-12T08:11:58.742Z,19.80
2023-06-12T08:14:28.400Z,19.80
2023-06-12T08:16:59.783Z,19.70
2023-06-12T08:19:29.954Z,19.90
2023-06-12T08:22:00.811Z,19.70
2023-06-12T08:24:31.901Z,19.80
2023-06-12T08:27:02.510Z,20.10
2023-06-12T08:29:33.195Z,19.90
2023-06-12T08:32:03.048Z,20.10
2023-06-12T08:34:33.571Z,20.20
2023-06-12T08:37:03.093Z,20.30
2023-06-12T08:39:32.637Z,20.30
2023-06-12T08:42:07.621Z,20.30
2023-06-12T08:44:37.785Z,20.50
2023-06-12T08:47:09.164Z,20.40
2023-06-12T08:49:39.841Z,20.60
2023-06-12T08:52:11.572Z,20.60
2023-06-12T08:54:42.349Z,20.50
2023-06-12T08:57:12.929Z,20.50
2023-06-12T08:59:42.524Z,20.60
2023-06-12T09:02:14.586Z,20.40
2023-06-12T09:04:56.624Z,20.70
2023-06-12T09:07:28.752Z,20.70
2023-06-12T09:10:08.598Z,20.60
2023-06-12T09:12:30.189Z,20.70
2023-06-12T09:15:02.452Z,20.90
2023-06-12T09:17:33.505Z,20.90
2023-06-12T09:20:03.824Z,20.90
2023-06-12T09:22:34.782Z,20.90
2023-06-12T09:25:07.322Z,20.70
2023-06-12T09:27:44.110Z,20.90
2023-06-12T09:30:14.038Z,21.00
2023-06-12T09:32:44.731Z,21.10
2023-06-12T09:35:14.613Z,21.30
2023-06-12T09:37:45.236Z,21.30
2023-06-12T09:40:16.876Z,21.20
2023-06-12T09:42:47.502Z,21.20
2023-06-12T09:45:19.836Z,21.40
2023-06-12T09:47:52.012Z,21.70
2023-06-12T09:50:23.741Z,21.60
2023-06-12T09:52:56.358Z,21.80
2023-06-12T09:55:28.434Z,22.00
2023-06-12T09:58:00.753Z,21.70
2023-06-12T10:00:30.938Z,21.80
2023-06-12T10:03:04.874Z,21.40
2023-06-12T10:05:38.598Z,21.10
2023-06-12T10:08:09.232Z,21.20
2023-06-12T10:10:38.869Z,21.70
2023-06-12T10:13:09.212Z,21.70
2023-06-12T10:15:39.673Z,21.70
2023-06-12T10:18:12.789Z,21.70
2023-06-12T10:20:43.305Z,21.80
2023-06-12T10:23:13.767Z,22.00
2023-06-12T10:25:43.462Z,22.00
2023-06-12T10:28:13.587Z,21.60
2023-06-12T10:30:52.012Z,21.50
2023-06-12T10:33:21.518Z,21.50
2023-06-12T10:35:52.730Z,21.30
2023-06-12T10:38:23.124Z,21.90
2023-06-12T10:40:53.836Z,21.80
2023-06-12T10:43:27.434Z,21.80
2023-06-12T10:46:00.161Z,21.70
2023-06-12T10:48:29.261Z,21.80
2023-06-12T10:50:59.469Z,21.90
2023-06-12T10:53:31.882Z,22.10
2023-06-12T10:56:09.494Z,22.30
2023-06-12T10:58:41.653Z,22.30
2023-06-12T11:01:17.536Z,22.30
2023-06-12T11:03:47.750Z,22.40
2023-06-12T11:06:18.544Z,22.60
2023-06-12T11:08:49.085Z,22.60
2023-06-12T11:11:19.139Z,22.90
2023-06-12T11:13:48.797Z,23.20
2023-06-12T11:16:21.547Z,23.30
2023-06-12T11:19:06.999Z,23.20
2023-06-12T11:21:40.005Z,23.50
2023-06-12T11:24:14.282Z,23.60
2023-06-12T11:26:44.250Z,23.50
2023-06-12T11:29:20.913Z,23.00
2023-06-12T11:31:50.714Z,23.30
2023-06-12T11:34:20.264Z,23.50
2023-06-12T11:36:49.969Z,23.30
2023-06-12T11:41:51.495Z,23.60
2023-06-12T11:44:21.207Z,23.60
2023-06-12T11:46:51.216Z,23.50
2023-06-12T11:49:22.725Z,23.50
2023-06-12T11:51:53.621Z,23.40
2023-06-12T11:56:56.526Z,22.80
2023-06-12T11:59:27.281Z,23.20
2023-06-12T12:02:00.249Z,23.20
2023-06-12T12:04:30.115Z,23.50
2023-06-12T12:07:00.429Z,23.40
2023-06-12T12:09:30.910Z,23.40
2023-06-12T12:12:06.832Z,23.20
2023-06-12T12:14:36.433Z,23.10
2023-06-12T12:17:07.572Z,22.70
2023-06-12T12:19:38.201Z,23.10
2023-06-12T12:22:09.637Z,23.30
2023-06-12T12:24:39.720Z,23.50
2023-06-12T12:27:13.854Z,23.30
2023-06-12T12:29:59.012Z,23.70
2023-06-12T12:32:15.639Z,23.40
2023-06-12T12:34:46.821Z,23.50
2023-06-12T12:37:16.611Z,23.60
2023-06-12T12:39:46.224Z,24.10
2023-06-12T12:42:17.724Z,24.30
2023-06-12T12:44:47.615Z,24.70
2023-06-12T12:47:17.374Z,24.90
2023-06-12T12:49:49.415Z,24.20
2023-06-12T12:52:32.770Z,24.30
2023-06-12T12:54:49.690Z,23.70
2023-06-12T12:57:19.463Z,23.30
2023-06-12T12:59:50.659Z,23.80
2023-06-12T13:02:20.292Z,24.30
2023-06-12T13:04:50.409Z,24.60
2023-06-12T13:07:19.224Z,24.60
2023-06-12T13:09:48.696Z,24.20
2023-06-12T13:12:18.667Z,24.20
2023-06-12T13:14:48.716Z,24.60
2023-06-12T13:17:18.608Z,24.90
2023-06-12T13:19:48.209Z,25.20
2023-06-12T13:22:18.090Z,25.60
2023-06-12T13:24:47.707Z,26.00
2023-06-12T13:27:18.438Z,26.10
2023-06-12T13:29:48.004Z,26.30
2023-06-12T13:32:17.676Z,26.40
2023-06-12T13:34:47.961Z,26.50
2023-06-12T13:37:17.586Z,26.70
2023-06-12T13:39:49.366Z,25.70
2023-06-12T13:42:19.198Z,25.70
2023-06-12T13:44:48.949Z,26.50
2023-06-12T13:47:18.720Z,26.50
2023-06-12T13:49:50.080Z,26.20
2023-06-12T13:52:20.085Z,25.50
2023-06-12T13:54:51.430Z,25.80
2023-06-12T13:57:21.413Z,25.20
2023-06-12T13:59:50.982Z,25.90
2023-06-12T14:02:20.642Z,25.90
2023-06-12T14:04:51.296Z,25.70
2023-06-12T14:07:20.296Z,25.30
2023-06-12T14:09:50.007Z,25.10
2023-06-12T14:12:19.658Z,25.70
2023-06-12T14:14:50.307Z,25.80
2023-06-12T14:17:20.302Z,25.60
2023-06-12T14:19:49.830Z,25.60
2023-06-12T14:22:20.340Z,26.00
2023-06-12T14:24:51.206Z,25.90
2023-06-12T14:27:20.805Z,26.20
2023-06-12T14:29:50.876Z,26.30
2023-06-12T14:32:21.139Z,25.80
2023-06-12T14:34:50.822Z,26.10
2023-06-12T14:37:20.372Z,26.10
2023-06-12T14:39:50.398Z,26.10
2023-06-12T14:42:20.034Z,26.00
2023-06-12T14:44:49.837Z,26.10
2023-06-12T14:47:19.388Z,26.20
2023-06-12T14:49:49.008Z,26.20
2023-06-12T14:52:32.711Z,26.40
2023-06-12T14:54:50.251Z,26.10
2023-06-12T14:57:19.826Z,26.50
2023-06-12T14:59:49.386Z,26.40
2023-06-12T15:02:18.971Z,26.50
2023-06-12T15:04:48.495Z,26.40
2023-06-12T15:07:18.163Z,26.30
2023-06-12T15:09:48.645Z,26.30
2023-06-12T15:12:18.165Z,25.70
2023-06-12T15:14:47.758Z,25.60
2023-06-12T15:17:17.741Z,25.60
2023-06-12T15:19:47.335Z,25.60
2023-06-12T15:22:16.944Z,25.80
2023-06-12T15:24:46.593Z,26.00
2023-06-12T15:27:16.632Z,26.10
2023-06-12T15:29:46.241Z,26.00
2023-06-12T15:32:15.842Z,25.60
2023-06-12T15:34:45.451Z,25.30
2023-06-12T15:37:19.617Z,25.20
2023-06-12T15:39:50.560Z,25.20
2023-06-12T15:42:20.409Z,25.50
2023-06-12T15:44:49.991Z,25.50
2023-06-12T15:47:20.798Z,25.40
2023-06-12T15:49:50.448Z,25.40
2023-06-12T15:52:20.046Z,25.30
2023-06-12T15:54:49.563Z,25.40
2023-06-12T15:57:19.219Z,25.40
2023-06-12T15:59:48.890Z,25.70
2023-06-12T16:02:19.573Z,26.10
2023-06-12T16:04:49.359Z,26.20
2023-06-12T16:07:18.948Z,25.80
2023-06-12T16:09:48.520Z,25.70
2023-06-12T16:12:18.243Z,25.50
2023-06-12T16:14:48.118Z,25.60
2023-06-12T16:17:17.810Z,25.30
2023-06-12T16:19:47.522Z,25.40
2023-06-12T16:22:17.507Z,25.20
2023-06-12T16:24:48.866Z,25.10
2023-06-12T16:27:18.801Z,25.10
2023-06-12T16:29:48.382Z,25.10
2023-06-12T16:32:18.588Z,25.00
2023-06-12T16:34:48.343Z,24.80
2023-06-12T16:37:21.067Z,24.90
2023-06-12T16:39:53.167Z,24.60
2023-06-12T16:42:23.237Z,24.50
2023-06-12T16:44:52.852Z,24.30
2023-06-12T16:47:22.404Z,24.30
2023-06-12T16:49:52.645Z,24.30
2023-06-12T16:52:22.660Z,24.30
2023-06-12T16:54:52.400Z,24.10
2023-06-12T16:57:22.366Z,23.80
2023-06-12T16:59:52.278Z,23.80
2023-06-12T17:02:23.781Z,23.70
2023-06-12T17:04:53.482Z,23.70
2023-06-12T17:07:23.070Z,23.70
2023-06-12T17:09:52.744Z,23.70
2023-06-12T17:12:23.541Z,23.70
2023-06-12T17:14:53.071Z,23.60
2023-06-12T17:17:22.791Z,23.50
2023-06-12T17:19:52.678Z,23.40
2023-06-12T17:22:22.363Z,23.40
2023-06-12T17:24:51.878Z,23.30
2023-06-12T17:27:21.449Z,23.10
2023-06-12T17:29:52.161Z,22.70
2023-06-12T17:32:21.878Z,22.90
2023-06-12T17:34:51.665Z,22.80
2023-06-12T17:37:21.309Z,22.90
2023-06-12T17:39:50.938Z,23.00
2023-06-12T17:42:20.453Z,23.00
2023-06-12T17:44:51.326Z,23.10
2023-06-12T17:47:22.488Z,23.00
2023-06-12T17:49:53.123Z,23.10
2023-06-12T17:52:22.723Z,23.10
2023-06-12T17:54:52.815Z,23.20
2023-06-12T17:57:23.074Z,22.80
2023-06-12T17:59:52.947Z,22.90
2023-06-12T18:02:22.457Z,22.80
2023-06-12T18:04:52.052Z,22.70
2023-06-12T18:07:21.651Z,22.80
2023-06-12T18:09:51.200Z,22.90
2023-06-12T18:12:21.382Z,22.90
2023-06-12T18:14:50.909Z,22.60
2023-06-12T18:17:20.569Z,22.70
2023-06-12T18:19:51.266Z,22.60
2023-06-12T18:22:20.807Z,22.60
2023-06-12T18:24:50.375Z,22.60
2023-06-12T18:27:19.962Z,22.10
2023-06-12T18:29:49.732Z,21.30
2023-06-12T18:32:19.961Z,21.30
2023-06-12T18:34:49.560Z,21.30
2023-06-12T18:37:19.164Z,21.50
2023-06-12T18:39:49.020Z,21.40
2023-06-12T18:42:18.611Z,21.50
2023-06-12T18:44:52.385Z,21.20
2023-06-12T18:47:21.904Z,21.20
2023-06-12T18:49:51.492Z,21.70
2023-06-12T18:52:21.141Z,21.70
2023-06-12T18:54:51.517Z,21.30
2023-06-12T18:57:21.184Z,21.20
2023-06-12T18:59:50.699Z,21.10
2023-06-12T19:02:20.328Z,20.40
2023-06-12T19:04:55.208Z,20.00
2023-06-12T19:07:26.279Z,19.80
2023-06-12T19:09:56.063Z,19.70
2023-06-12T19:12:25.693Z,18.90
2023-06-12T19:14:55.391Z,18.30
2023-06-12T19:17:24.922Z,18.60
2023-06-12T19:19:54.507Z,19.20
2023-06-12T19:22:24.187Z,19.60
2023-06-12T19:24:53.780Z,19.70
2023-06-12T19:27:23.345Z,20.00
2023-06-12T19:29:53.025Z,20.00
2023-06-12T19:32:23.331Z,19.80
2023-06-12T19:34:53.090Z,19.70
2023-06-12T19:37:22.760Z,19.20
2023-06-12T19:39:53.455Z,19.30
2023-06-12T19:42:23.050Z,19.20
2023-06-12T19:44:53.683Z,19.70
2023-06-12T19:47:23.774Z,19.80
2023-06-12T19:49:56.431Z,19.50
2023-06-12T19:52:24.991Z,19.40
2023-06-12T19:54:54.865Z,19.30
2023-06-12T19:57:24.580Z,19.60
2023-06-12T19:59:54.772Z,19.20
2023-06-12T20:02:24.446Z,18.60
2023-06-12T20:04:53.985Z,18.90
2023-06-12T20:07:23.533Z,18.90
2023-06-12T20:09:53.517Z,18.50
2023-06-12T20:12:23.039Z,18.20
2023-06-12T20:14:52.717Z,18.30
2023-06-12T20:17:23.060Z,18.70
2023-06-12T20:19:53.058Z,19.10
2023-06-12T20:22:23.620Z,19.10
2023-06-12T20:24:53.478Z,18.70
2023-06-12T20:27:24.783Z,18.40
2023-06-12T20:29:56.254Z,18.50
2023-06-12T20:32:28.477Z,18.90
2023-06-12T20:34:58.250Z,19.10
2023-06-12T20:37:29.130Z,18.90
2023-06-12T20:39:59.911Z,19.30
2023-06-12T20:42:29.499Z,19.30
2023-06-12T20:44:59.250Z,19.50
2023-06-12T20:47:29.616Z,19.60
2023-06-12T20:49:59.402Z,19.70
2023-06-12T20:52:29.061Z,19.90
2023-06-12T20:54:59.361Z,19.90
2023-06-12T20:57:28.886Z,19.70
2023-06-12T21:00:00.406Z,19.80
2023-06-12T21:02:31.257Z,19.60
2023-06-12T21:05:01.209Z,19.70
2023-06-12T21:07:31.503Z,19.40
2023-06-12T21:10:01.597Z,19.50
2023-06-12T21:12:31.152Z,19.70
2023-06-12T21:15:00.733Z,19.70
2023-06-12T21:17:31.244Z,19.60
2023-06-12T21:20:02.756Z,19.70
2023-06-12T21:22:40.897Z,19.80
2023-06-12T21:25:12.628Z,19.90
2023-06-12T21:27:43.504Z,19.90
2023-06-12T21:30:13.386Z,19.80
2023-06-12T21:32:43.480Z,19.50
2023-06-12T21:35:13.292Z,19.60
2023-06-12T21:37:44.080Z,19.50
2023-06-12T21:40:13.936Z,19.40
2023-06-12T21:42:43.593Z,19.10
2023-06-12T21:45:13.423Z,18.90
2023-06-12T21:47:43.490Z,19.00
2023-06-12T21:50:14.177Z,19.00
2023-06-12T21:52:44.186Z,19.00
2023-06-12T21:55:14.003Z,19.00
2023-06-12T21:57:43.974Z,18.90
2023-06-12T22:00:14.889Z,19.00
2023-06-12T22:02:46.564Z,18.80
2023-06-12T22:05:17.512Z,18.70
2023-06-12T22:07:47.535Z,18.90
2023-06-12T22:10:17.172Z,18.80
2023-06-12T22:12:46.957Z,18.70
2023-06-12T22:15:16.687Z,18.80
2023-06-12T22:17:47.218Z,19.00
2023-06-12T22:20:18.519Z,19.00
2023-06-12T22:22:51.670Z,19.10
2023-06-12T22:25:22.359Z,19.30
2023-06-12T22:27:52.857Z,19.30
2023-06-12T22:30:22.517Z,19.40
2023-06-12T22:32:52.961Z,19.30
2023-06-12T22:35:22.528Z,19.30
2023-06-12T22:37:53.800Z,19.30
2023-06-12T22:40:23.781Z,19.30
2023-06-12T22:42:53.487Z,19.30
2023-06-12T22:45:23.641Z,19.10
2023-06-12T22:47:54.252Z,19.10
2023-06-12T22:50:24.102Z,18.80
2023-06-12T22:52:54.986Z,18.90
2023-06-12T22:55:25.145Z,19.10
2023-06-12T22:57:54.827Z,18.90
2023-06-12T23:00:24.589Z,18.90
2023-06-12T23:02:54.335Z,18.90
2023-06-12T23:05:25.564Z,18.90
2023-06-12T23:07:55.260Z,18.70
2023-06-12T23:10:24.953Z,18.50
2023-06-12T23:12:56.116Z,18.20
2023-06-12T23:15:25.832Z,18.10
2023-06-12T23:17:55.588Z,18.20
2023-06-12T23:20:27.018Z,18.40
2023-06-12T23:22:56.695Z,18.40
2023-06-12T23:25:27.896Z,18.50
2023-06-12T23:27:58.367Z,18.20
2023-06-12T23:30:29.977Z,18.30
2023-06-12T23:32:59.763Z,18.60
2023-06-12T23:35:29.393Z,18.80
2023-06-12T23:37:58.923Z,18.90
2023-06-12T23:40:29.709Z,19.10
2023-06-12T23:42:59.290Z,19.20
2023-06-12T23:45:28.831Z,19.20
2023-06-12T23:47:58.607Z,19.30
2023-06-12T23:50:28.338Z,19.30
2023-06-12T23:52:57.985Z,19.30
2023-06-12T23:55:28.528Z,19.40
2023-06-12T23:57:58.137Z,19.30
